メインページ
METAR-TAF:

METAR-TAF

空港 :

南紀白浜空港

田辺, 日本

緯度: 33-44N, 経度: 135-23E, 海抜: 105m

現時点の気象観測

当レポートは2時間0分前の10:00(UTC)に作成
北東の風 5kt、からの間で変化する
気温 18°C
湿度 68%
気圧 1019 hPa
視程10km以上
高度3000ftの雲はほとんどない
高度7000ftの雲は散在している
千切れ雲あり

METAR: RJBD 201000Z 05005KT 010V090 9999 FEW030 SCT070 BKN/// 18/12 Q1019

時間: 21:00 (12:00 UTC)


TAF: 見つかりません

4,000以上の空港の気象観測と天気予報(METAR報とTAF報)

利用可能な観測所は地図上に黄色い丸と赤い丸で示す。

丸の上にカーソルを重ねると観測所名を参照できる。

次にクリックすると気象観測と天気予報を参照できる。

マップの切り替え:黒色「×」印の緑ボタンをクリックして拡大、「-」印の緑ボタンをクリックして縮小、緑色の三角印をクリックして隣りの地図に切り替え


METAR-TAF: